Time;durP1;ratioP1;P1;durP2;ratioP2;P2;SDS_P1;SDS_P2;PMS_P1;PMS_P2;Temp;Humidity;BMP_temperature;BMP_pressure;BME280_temperature;BME280_humidity;BME280_pressure;Samples;Min_cycle;Max_cycle;Signal;HPM_P1;HPM_P2
2022/12/30 00:01:37;;;;;;;10.90;2.17;;;7.90;99.90;;;;;;4200345;28;20182;-85
2022/12/30 00:03:38;;;;;;;16.70;2.90;;;7.30;99.90;;;;;;4200873;28;20501;-85
2022/12/30 00:05:39;;;;;;;15.23;2.67;;;6.90;99.90;;;;;;4199690;28;20507;-85
2022/12/30 00:07:40;;;;;;;14.30;2.90;;;7.00;99.90;;;;;;4198525;28;20064;-83
2022/12/30 00:09:41;;;;;;;17.08;2.90;;;6.60;99.90;;;;;;4199712;28;20060;-85
2022/12/30 00:11:42;;;;;;;14.52;2.65;;;6.90;99.90;;;;;;4198555;28;20052;-85
2022/12/30 00:34:55;;;;;;;17.52;3.30;;;6.40;99.90;;;;;;4196352;28;20064;-86
2022/12/30 00:36:57;;;;;;;20.85;3.05;;;6.40;99.90;;;;;;4196616;28;20095;-86
2022/12/30 00:38:58;;;;;;;14.30;2.67;;;6.40;99.90;;;;;;4179921;28;20060;-85
2022/12/30 00:43:18;;;;;;;20.73;2.55;;;6.40;99.90;;;;;;4197187;28;20040;-85
2022/12/30 00:45:20;;;;;;;10.30;2.45;;;6.60;99.90;;;;;;4196327;28;20045;-85
2022/12/30 00:47:20;;;;;;;12.32;2.05;;;6.40;99.90;;;;;;4195797;28;20500;-85
2022/12/30 00:56:20;;;;;;;12.10;2.42;;;6.20;99.90;;;;;;4199727;28;20508;-85
2022/12/30 00:58:21;;;;;;;16.65;2.67;;;6.20;99.90;;;;;;4198437;28;20054;-85
2022/12/30 01:00:21;;;;;;;12.27;2.60;;;6.20;99.90;;;;;;4182117;28;20084;-84
2022/12/30 01:02:22;;;;;;;18.75;2.00;;;6.20;99.90;;;;;;4199461;28;20109;-83
2022/12/30 01:04:24;;;;;;;14.60;2.25;;;6.80;99.90;;;;;;4198178;28;20048;-85
2022/12/30 01:06:25;;;;;;;17.73;2.83;;;5.90;99.90;;;;;;4198206;28;20048;-84
2022/12/30 01:08:25;;;;;;;13.77;2.15;;;5.80;99.90;;;;;;4199306;28;20063;-84
2022/12/30 01:10:26;;;;;;;16.38;2.17;;;6.20;99.90;;;;;;4197082;28;20044;-85
2022/12/30 01:12:28;;;;;;;20.20;2.80;;;6.20;99.90;;;;;;4196864;28;20080;-84
2022/12/30 01:14:29;;;;;;;8.65;2.13;;;6.30;99.90;;;;;;4199292;28;20124;-83
2022/12/30 01:16:30;;;;;;;12.43;2.80;;;6.20;99.90;;;;;;4199288;28;20041;-84
2022/12/30 01:18:32;;;;;;;15.98;2.38;;;6.10;99.90;;;;;;4198363;28;20044;-84
2022/12/30 01:20:35;;;;;;;17.83;2.80;;;6.20;99.90;;;;;;4198526;28;20102;-84
2022/12/30 01:22:36;;;;;;;11.50;2.22;;;5.90;99.90;;;;;;4199240;28;20044;-85
2022/12/30 01:24:37;;;;;;;12.15;2.83;;;6.60;99.90;;;;;;4198566;28;20139;-86
2022/12/30 01:26:38;;;;;;;17.63;2.28;;;6.00;99.90;;;;;;4199695;28;20051;-85
2022/12/30 01:28:39;;;;;;;13.40;1.98;;;6.40;99.90;;;;;;4199331;28;20041;-85
2022/12/30 01:30:40;;;;;;;20.10;2.85;;;6.40;99.90;;;;;;4198421;28;20564;-84
2022/12/30 01:32:41;;;;;;;20.50;2.22;;;6.20;99.90;;;;;;4199241;28;20053;-84
2022/12/30 01:34:42;;;;;;;16.73;2.92;;;6.10;99.90;;;;;;4197646;28;20048;-85
2022/12/30 01:36:43;;;;;;;15.35;2.92;;;6.00;99.90;;;;;;4215571;28;20060;-85
2022/12/30 01:38:44;;;;;;;21.77;3.97;;;6.40;99.90;;;;;;4215285;28;20059;-85
2022/12/30 01:40:45;;;;;;;11.93;3.80;;;6.00;99.90;;;;;;4215711;28;20054;-85
2022/12/30 01:42:46;;;;;;;15.20;2.88;;;6.50;99.90;;;;;;4217467;28;20048;-85
2022/12/30 01:45:09;;;;;;;10.93;1.35;;;5.70;99.90;;;;;;4218638;28;20532;-85
2022/12/30 01:47:14;;;;;;;19.95;2.10;;;6.00;99.90;;;;;;4220601;28;20048;-85
2022/12/30 01:49:15;;;;;;;27.63;3.53;;;5.80;99.90;;;;;;4220051;28;20051;-85
2022/12/30 01:51:21;;;;;;;16.40;2.53;;;5.70;99.90;;;;;;4198091;28;20032;-86
2022/12/30 01:53:28;;;;;;;10.07;3.08;;;5.80;99.90;;;;;;4200117;28;20044;-85
2022/12/30 01:55:42;;;;;;;18.13;3.88;;;5.80;99.90;;;;;;4198775;28;20056;-85
2022/12/30 01:57:50;;;;;;;9.85;2.45;;;5.80;99.90;;;;;;4198841;28;20484;-85
2022/12/30 01:59:51;;;;;;;15.75;3.10;;;6.20;99.90;;;;;;4181114;28;20556;-85
2022/12/30 02:01:54;;;;;;;15.15;1.75;;;5.80;99.90;;;;;;4198978;28;20106;-85
2022/12/30 02:04:18;;;;;;;10.40;1.85;;;5.70;99.90;;;;;;4181802;28;20056;-85
2022/12/30 02:06:25;;;;;;;10.55;1.70;;;5.80;99.90;;;;;;4199600;28;20076;-85
2022/12/30 02:08:27;;;;;;;17.63;2.53;;;5.60;99.90;;;;;;4199143;28;20060;-85
2022/12/30 02:10:28;;;;;;;15.70;2.88;;;5.80;99.90;;;;;;4198954;28;20076;-85
2022/12/30 02:12:29;;;;;;;21.85;3.15;;;6.30;99.90;;;;;;4199456;28;20049;-85
2022/12/30 02:14:32;;;;;;;16.55;2.20;;;5.90;99.90;;;;;;4198554;28;20531;-85
2022/12/30 02:17:08;;;;;;;7.03;1.77;;;5.90;99.90;;;;;;4181786;28;20489;-85
2022/12/30 02:19:38;;;;;;;19.27;2.25;;;5.80;99.90;;;;;;4199301;28;20045;-84
2022/12/30 02:22:07;;;;;;;8.73;1.73;;;5.90;99.90;;;;;;4198016;28;20520;-85
2022/12/30 02:24:29;;;;;;;14.15;2.08;;;5.90;99.90;;;;;;4198638;28;20137;-85
2022/12/30 02:26:51;;;;;;;9.13;2.13;;;5.90;99.90;;;;;;4198397;28;20401;-85
2022/12/30 02:28:58;;;;;;;20.27;2.78;;;5.90;99.90;;;;;;4199527;28;20047;-85
2022/12/30 02:31:14;;;;;;;12.18;2.42;;;5.90;99.90;;;;;;4199220;28;20825;-85
2022/12/30 02:33:48;;;;;;;17.65;2.17;;;5.90;99.90;;;;;;4180886;28;20048;-85
2022/12/30 02:36:01;;;;;;;11.75;1.90;;;5.90;99.90;;;;;;4198667;28;20094;-86
2022/12/30 02:38:28;;;;;;;12.75;2.58;;;5.90;99.90;;;;;;4198502;28;20040;-85
2022/12/30 02:44:36;;;;;;;14.88;2.17;;;5.70;99.90;;;;;;4164917;28;20524;-85
2022/12/30 02:45:37;;;;;;;15.85;1.92;;;5.80;99.90;;;;;;4197194;28;20079;-85
2022/12/30 02:47:51;;;;;;;12.00;3.03;;;5.90;99.90;;;;;;4196953;28;20059;-85
2022/12/30 02:52:22;;;;;;;12.95;2.10;;;5.90;99.90;;;;;;4198429;28;20559;-85
2022/12/30 02:54:24;;;;;;;10.30;2.50;;;6.80;99.90;;;;;;4180783;28;20056;-84
2022/12/30 02:56:25;;;;;;;27.25;2.70;;;5.80;99.90;;;;;;4198534;28;20095;-84
2022/12/30 02:58:31;;;;;;;22.17;2.95;;;5.90;99.90;;;;;;4197472;28;20436;-85
2022/12/30 03:03:57;;;;;;;14.77;2.17;;;5.90;99.90;;;;;;4199108;28;20057;-84
2022/12/30 03:06:12;;;;;;;17.10;2.85;;;5.90;99.90;;;;;;4197694;28;20445;-84
2022/12/30 03:08:21;;;;;;;16.80;1.73;;;5.80;99.90;;;;;;4197270;28;20091;-85
2022/12/30 03:13:09;;;;;;;9.35;2.50;;;5.80;99.90;;;;;;4198872;28;20541;-84
2022/12/30 03:15:17;;;;;;;16.30;1.73;;;5.80;99.90;;;;;;4199570;28;20093;-84
2022/12/30 03:17:31;;;;;;;14.45;1.80;;;5.80;99.90;;;;;;4199200;28;20068;-84
2022/12/30 03:19:39;;;;;;;21.00;2.80;;;6.20;99.90;;;;;;4199581;28;20040;-85
2022/12/30 03:21:43;;;;;;;15.35;2.92;;;5.80;99.90;;;;;;4199187;28;20051;-84
2022/12/30 03:28:33;;;;;;;17.40;1.98;;;5.80;99.90;;;;;;4197420;28;20056;-85
2022/12/30 03:30:39;;;;;;;15.95;2.70;;;5.70;99.90;;;;;;4213811;28;20044;-85
2022/12/30 03:32:41;;;;;;;20.55;2.15;;;5.70;99.90;;;;;;4196479;28;20044;-86
2022/12/30 03:34:42;;;;;;;9.85;2.17;;;6.20;99.90;;;;;;4198353;28;20467;-86
2022/12/30 03:36:48;;;;;;;18.02;2.22;;;5.70;99.90;;;;;;4196992;28;20080;-85
2022/12/30 03:39:15;;;;;;;12.90;2.08;;;5.40;99.90;;;;;;4198327;28;20045;-85
2022/12/30 03:41:19;;;;;;;18.25;2.67;;;5.70;99.90;;;;;;4198451;28;20080;-86
2022/12/30 03:43:20;;;;;;;18.58;1.92;;;5.60;99.90;;;;;;4196920;28;20493;-86
2022/12/30 03:45:22;;;;;;;18.33;3.28;;;5.60;99.90;;;;;;4196402;28;20040;-85
2022/12/30 03:47:24;;;;;;;17.27;2.15;;;6.10;99.90;;;;;;4198092;28;20844;-86
2022/12/30 03:49:25;;;;;;;17.25;2.55;;;5.60;99.90;;;;;;4196669;28;20151;-85
2022/12/30 03:51:26;;;;;;;14.35;2.78;;;5.60;99.90;;;;;;4179817;28;20041;-86
2022/12/30 03:53:28;;;;;;;17.08;2.22;;;5.60;99.90;;;;;;4197777;28;20071;-86
2022/12/30 03:55:30;;;;;;;11.13;2.47;;;5.30;99.90;;;;;;4196893;28;20418;-86
2022/12/30 03:57:32;;;;;;;17.63;2.17;;;5.30;99.90;;;;;;4197919;28;20107;-86
2022/12/30 03:59:33;;;;;;;14.73;1.98;;;5.60;99.90;;;;;;4197437;28;20052;-85
2022/12/30 04:01:35;;;;;;;17.10;2.63;;;5.50;99.90;;;;;;4196692;28;20075;-86
2022/12/30 04:03:35;;;;;;;11.07;2.10;;;6.20;99.90;;;;;;4196739;28;20128;-86
2022/12/30 04:05:37;;;;;;;22.42;5.40;;;5.60;99.90;;;;;;4213182;28;20044;-86
2022/12/30 04:07:38;;;;;;;14.48;2.40;;;5.50;99.90;;;;;;4196653;28;20135;-86
2022/12/30 04:09:39;;;;;;;16.10;2.80;;;5.40;99.90;;;;;;4196680;28;20439;-86
2022/12/30 04:11:40;;;;;;;14.85;2.83;;;5.40;99.90;;;;;;4197613;28;20052;-86
2022/12/30 04:13:40;;;;;;;14.48;2.75;;;5.70;99.90;;;;;;4197219;28;20497;-86
2022/12/30 04:15:41;;;;;;;17.70;2.47;;;5.40;99.90;;;;;;4196894;28;20161;-85
2022/12/30 04:17:42;;;;;;;18.40;3.58;;;6.10;99.90;;;;;;4197745;28;20041;-85
2022/12/30 04:19:43;;;;;;;13.70;2.58;;;5.40;99.90;;;;;;4180265;28;20098;-86
2022/12/30 04:21:43;;;;;;;21.55;2.88;;;5.60;99.90;;;;;;4198074;28;20049;-85
2022/12/30 04:23:44;;;;;;;11.60;2.67;;;5.30;99.90;;;;;;4200010;28;20101;-85
2022/12/30 04:25:45;;;;;;;25.83;2.42;;;5.30;99.90;;;;;;4199403;28;20044;-85
2022/12/30 04:27:46;;;;;;;17.88;3.20;;;5.90;99.90;;;;;;4200672;28;20049;-86
2022/12/30 04:29:46;;;;;;;12.38;3.35;;;5.30;99.90;;;;;;4183164;28;20044;-86
2022/12/30 04:31:47;;;;;;;10.60;2.50;;;5.50;99.90;;;;;;4201018;28;20044;-86
2022/12/30 04:33:49;;;;;;;11.00;2.20;;;5.80;99.90;;;;;;4200457;28;20150;-85
2022/12/30 04:35:51;;;;;;;18.73;3.75;;;5.30;99.90;;;;;;4200407;28;20048;-86
2022/12/30 04:37:52;;;;;;;13.70;2.45;;;5.30;99.90;;;;;;4201078;28;20040;-85
2022/12/30 04:39:53;;;;;;;16.50;3.35;;;5.30;99.90;;;;;;4199126;28;20082;-85
2022/12/30 04:41:53;;;;;;;12.50;3.08;;;5.10;99.90;;;;;;4200729;28;20404;-85
2022/12/30 04:43:54;;;;;;;10.43;2.83;;;5.60;99.90;;;;;;4198663;28;20106;-86
2022/12/30 04:45:55;;;;;;;14.60;3.03;;;5.10;99.90;;;;;;4200375;28;20428;-85
2022/12/30 04:47:57;;;;;;;14.07;2.72;;;5.30;99.90;;;;;;4199178;28;20036;-86
2022/12/30 04:49:57;;;;;;;14.23;2.42;;;5.40;99.90;;;;;;4199642;28;20052;-85
2022/12/30 04:51:58;;;;;;;15.18;3.58;;;5.40;99.90;;;;;;4183136;28;20051;-86
2022/12/30 04:53:59;;;;;;;16.80;2.28;;;6.20;99.90;;;;;;4200576;28;20107;-85
2022/12/30 04:56:00;;;;;;;17.42;2.30;;;5.50;99.90;;;;;;4199244;28;20137;-85
2022/12/30 04:58:00;;;;;;;16.42;2.60;;;6.00;99.90;;;;;;4199119;28;20516;-85
2022/12/30 05:00:03;;;;;;;13.45;2.00;;;5.40;99.90;;;;;;4199678;28;20048;-85
2022/12/30 05:02:06;;;;;;;12.35;2.70;;;5.40;99.90;;;;;;4200894;28;20524;-85
2022/12/30 05:04:07;;;;;;;17.83;2.85;;;5.40;99.90;;;;;;4199443;28;20054;-85
2022/12/30 05:06:07;;;;;;;10.80;1.95;;;5.40;99.90;;;;;;4201062;28;20112;-85
2022/12/30 05:08:08;;;;;;;11.43;2.25;;;5.40;99.90;;;;;;4201516;28;20056;-85
2022/12/30 05:10:09;;;;;;;7.10;1.80;;;5.40;99.90;;;;;;4201164;28;20052;-84
2022/12/30 05:12:10;;;;;;;13.20;1.50;;;5.20;99.90;;;;;;4209845;28;20048;-84
2022/12/30 05:14:11;;;;;;;12.68;1.95;;;5.40;99.90;;;;;;4217562;28;20092;-85
2022/12/30 05:16:12;;;;;;;10.07;1.65;;;5.50;99.90;;;;;;4216990;28;20214;-84
2022/12/30 05:18:13;;;;;;;7.78;1.50;;;5.40;99.90;;;;;;4216524;28;20400;-83
2022/12/30 05:20:14;;;;;;;10.02;2.13;;;5.40;99.90;;;;;;4217068;28;20143;-85
2022/12/30 05:22:15;;;;;;;9.57;2.95;;;5.40;99.90;;;;;;4215054;28;20044;-83
2022/12/30 05:26:37;;;;;;;21.48;3.30;;;5.50;99.90;;;;;;4217270;28;20048;-84
2022/12/30 05:28:37;;;;;;;12.35;3.38;;;5.60;99.90;;;;;;4215796;28;20044;-84
2022/12/30 05:30:38;;;;;;;12.93;2.92;;;5.40;99.90;;;;;;4215689;28;20047;-84
2022/12/30 05:32:40;;;;;;;12.57;2.60;;;5.50;99.90;;;;;;4216835;28;20040;-84
2022/12/30 05:34:41;;;;;;;17.60;3.90;;;5.20;99.90;;;;;;4215377;28;20036;-84
2022/12/30 05:36:41;;;;;;;13.90;3.47;;;5.40;99.90;;;;;;4216942;28;20060;-84
2022/12/30 05:38:42;;;;;;;9.70;3.40;;;5.50;99.90;;;;;;4198804;28;20131;-84
2022/12/30 05:40:43;;;;;;;13.05;4.35;;;5.50;99.90;;;;;;4215263;28;20486;-84
2022/12/30 05:42:46;;;;;;;17.15;4.25;;;5.50;99.90;;;;;;4216747;28;20412;-84
2022/12/30 05:44:46;;;;;;;17.30;3.75;;;6.10;99.90;;;;;;4215951;28;20072;-85
2022/12/30 05:46:47;;;;;;;20.65;4.63;;;5.30;99.90;;;;;;4216644;28;20047;-85
2022/12/30 05:48:48;;;;;;;11.23;3.88;;;6.00;99.90;;;;;;4215171;28;20043;-84
2022/12/30 05:50:50;;;;;;;21.85;3.50;;;5.50;99.90;;;;;;4215322;28;20531;-84
2022/12/30 05:52:50;;;;;;;10.18;3.60;;;5.60;99.90;;;;;;4215174;28;20047;-85
2022/12/30 05:54:51;;;;;;;16.05;3.40;;;5.70;99.90;;;;;;4198319;28;20049;-84
2022/12/30 05:56:52;;;;;;;15.63;3.22;;;5.50;99.90;;;;;;4216581;28;20036;-85
2022/12/30 05:58:53;;;;;;;15.52;3.67;;;6.30;99.90;;;;;;4216450;28;20546;-85
2022/12/30 06:00:56;;;;;;;11.48;3.50;;;5.50;99.90;;;;;;4215315;28;20048;-85
2022/12/30 06:02:57;;;;;;;13.82;3.35;;;5.90;99.90;;;;;;4198894;28;20044;-84
2022/12/30 06:04:58;;;;;;;14.25;3.90;;;6.00;99.90;;;;;;4215735;28;20047;-84
2022/12/30 06:06:58;;;;;;;11.73;4.57;;;5.30;99.90;;;;;;4214918;28;20040;-84
2022/12/30 06:08:59;;;;;;;12.02;3.10;;;5.50;99.90;;;;;;4215066;28;20112;-85
2022/12/30 06:11:00;;;;;;;12.25;3.90;;;5.50;99.90;;;;;;4216729;28;20060;-84
2022/12/30 06:13:01;;;;;;;11.93;3.28;;;5.50;99.90;;;;;;4214893;28;20408;-84
2022/12/30 06:15:02;;;;;;;15.43;4.70;;;5.20;99.90;;;;;;4216151;28;20116;-83
2022/12/30 06:17:04;;;;;;;13.93;3.53;;;5.40;99.90;;;;;;4215199;28;20055;-84
2022/12/30 06:19:04;;;;;;;11.35;2.72;;;5.30;99.90;;;;;;4198093;28;20044;-84
2022/12/30 06:21:05;;;;;;;16.83;3.40;;;5.30;99.90;;;;;;4216015;28;20507;-85
2022/12/30 06:23:07;;;;;;;12.60;2.38;;;5.30;99.90;;;;;;4214946;28;20534;-84
2022/12/30 06:25:08;;;;;;;16.67;3.88;;;5.20;99.90;;;;;;4215343;28;20557;-84
2022/12/30 06:27:10;;;;;;;14.90;3.45;;;5.20;99.90;;;;;;4215006;28;20127;-84
2022/12/30 06:29:10;;;;;;;18.83;2.97;;;5.20;99.90;;;;;;4199543;28;20060;-84
2022/12/30 06:31:12;;;;;;;10.75;2.70;;;6.50;99.90;;;;;;4217260;28;20503;-84
2022/12/30 06:33:13;;;;;;;13.18;3.25;;;5.50;99.90;;;;;;4217948;28;20135;-84
2022/12/30 06:35:14;;;;;;;17.23;2.65;;;5.90;99.90;;;;;;4218697;28;20262;-84
2022/12/30 06:37:16;;;;;;;11.32;2.42;;;4.90;99.90;;;;;;4219086;28;20670;-84
2022/12/30 06:39:17;;;;;;;7.40;2.40;;;4.90;99.90;;;;;;4218701;28;20076;-83
2022/12/30 06:41:19;;;;;;;13.55;3.03;;;5.70;99.90;;;;;;4217440;28;20056;-84
2022/12/30 06:43:26;;;;;;;9.07;2.05;;;5.50;99.90;;;;;;4217146;28;20458;-84
2022/12/30 06:45:27;;;;;;;10.45;2.30;;;4.80;99.90;;;;;;4217182;28;20059;-83
2022/12/30 06:47:28;;;;;;;14.52;2.60;;;4.90;99.90;;;;;;4200461;28;20048;-83
2022/12/30 06:49:28;;;;;;;11.52;2.75;;;4.90;99.90;;;;;;4218010;28;20095;-84
2022/12/30 06:51:29;;;;;;;12.18;2.35;;;4.90;99.90;;;;;;4216694;28;20060;-84
2022/12/30 06:53:31;;;;;;;13.15;2.00;;;3.40;99.90;;;;;;4215069;28;20060;-84
2022/12/30 06:55:32;;;;;;;12.52;2.45;;;4.80;99.90;;;;;;4215361;28;20048;-83
2022/12/30 06:57:33;;;;;;;14.13;2.55;;;4.80;99.90;;;;;;4214922;28;20055;-84
2022/12/30 06:59:34;;;;;;;10.98;1.63;;;5.20;99.90;;;;;;4215144;28;20123;-85
2022/12/30 07:01:35;;;;;;;5.50;1.65;;;4.80;99.90;;;;;;4214519;28;20086;-85
2022/12/30 07:03:36;;;;;;;13.50;2.38;;;4.70;99.90;;;;;;4197823;28;20586;-85
2022/12/30 07:05:37;;;;;;;11.35;2.45;;;5.00;99.90;;;;;;4214991;28;20494;-85
2022/12/30 07:07:37;;;;;;;11.35;3.03;;;5.00;99.90;;;;;;4215776;28;20040;-85
2022/12/30 07:09:40;;;;;;;12.20;2.10;;;4.80;99.90;;;;;;4214028;28;20048;-85
2022/12/30 07:11:41;;;;;;;14.77;2.63;;;4.80;99.90;;;;;;4215378;28;20392;-85
2022/12/30 07:13:42;;;;;;;9.13;2.60;;;4.80;99.90;;;;;;4219147;28;20127;-85
2022/12/30 07:15:42;;;;;;;12.23;3.10;;;5.30;99.90;;;;;;4215709;28;20043;-85
2022/12/30 07:17:44;;;;;;;14.95;2.15;;;5.50;99.90;;;;;;4215989;28;20561;-85
2022/12/30 07:19:46;;;;;;;14.45;2.25;;;4.80;99.90;;;;;;4214317;28;20432;-85
2022/12/30 07:21:47;;;;;;;7.45;1.55;;;5.60;99.90;;;;;;4214867;28;20114;-84
2022/12/30 07:23:48;;;;;;;8.65;1.70;;;4.80;99.90;;;;;;4215072;28;20126;-84
2022/12/30 07:25:49;;;;;;;11.77;2.22;;;5.90;99.90;;;;;;4215198;28;20918;-84
2022/12/30 07:27:57;;;;;;;15.48;3.45;;;4.80;99.90;;;;;;4215396;28;20090;-83
2022/12/30 07:29:58;;;;;;;10.63;2.80;;;4.70;99.90;;;;;;4216045;28;20048;-83
2022/12/30 07:31:59;;;;;;;15.38;1.90;;;5.30;99.90;;;;;;4197709;28;20055;-84
2022/12/30 07:33:59;;;;;;;11.63;1.80;;;4.80;99.90;;;;;;4213782;28;20170;-85
2022/12/30 07:36:01;;;;;;;10.27;2.10;;;4.70;99.90;;;;;;4214327;28;20507;-84
2022/12/30 07:38:02;;;;;;;12.55;1.50;;;4.70;99.90;;;;;;4215182;28;20051;-84
2022/12/30 07:40:04;;;;;;;19.20;1.95;;;5.00;99.90;;;;;;4215266;28;20055;-84
2022/12/30 07:42:04;;;;;;;15.73;2.88;;;4.70;99.90;;;;;;4214452;28;20032;-84
2022/12/30 07:44:06;;;;;;;6.97;1.65;;;4.50;99.90;;;;;;4214212;28;20048;-84
2022/12/30 07:46:08;;;;;;;13.82;2.38;;;4.70;99.90;;;;;;4197517;28;20526;-84
2022/12/30 07:48:10;;;;;;;20.73;3.50;;;4.70;99.90;;;;;;4214842;28;20059;-84
2022/12/30 07:50:12;;;;;;;7.70;2.25;;;4.80;99.90;;;;;;4197011;28;20068;-84
2022/12/30 07:52:12;;;;;;;9.80;2.10;;;4.60;99.90;;;;;;4197161;28;20416;-84
2022/12/30 07:54:13;;;;;;;13.77;2.38;;;4.60;99.90;;;;;;4214158;28;20048;-84
2022/12/30 07:56:14;;;;;;;10.75;1.83;;;4.70;99.90;;;;;;4213800;28;20500;-84
2022/12/30 07:58:16;;;;;;;17.42;2.28;;;4.70;99.90;;;;;;4198537;28;20048;-84
2022/12/30 08:00:17;;;;;;;8.63;2.08;;;4.70;99.90;;;;;;4217614;28;20040;-84
2022/12/30 08:02:17;;;;;;;11.77;1.90;;;4.70;99.90;;;;;;4218556;28;20036;-84
2022/12/30 08:04:18;;;;;;;12.73;2.33;;;5.40;99.90;;;;;;4218470;28;20127;-84
2022/12/30 08:06:19;;;;;;;19.02;2.22;;;4.70;99.90;;;;;;4218526;28;20048;-84
2022/12/30 08:08:20;;;;;;;7.13;1.50;;;6.00;99.90;;;;;;4200249;28;20048;-84
2022/12/30 08:10:21;;;;;;;17.50;2.25;;;4.60;99.90;;;;;;4218691;28;20119;-84
2022/12/30 08:12:23;;;;;;;12.93;2.22;;;5.50;99.90;;;;;;4216616;28;20088;-85
2022/12/30 08:14:26;;;;;;;10.55;1.63;;;4.90;99.90;;;;;;4200659;28;20571;-85
2022/12/30 08:16:27;;;;;;;11.60;2.47;;;4.80;99.90;;;;;;4200445;28;20058;-85
2022/12/30 08:18:28;;;;;;;19.10;3.95;;;4.80;99.90;;;;;;4200346;28;20127;-84
2022/12/30 08:20:29;;;;;;;14.70;2.08;;;5.00;99.90;;;;;;4217324;28;20051;-84
2022/12/30 08:22:30;;;;;;;14.80;2.25;;;4.80;99.90;;;;;;4217806;28;20500;-84
2022/12/30 08:24:31;;;;;;;7.93;1.67;;;4.80;99.90;;;;;;4217783;28;20503;-83
2022/12/30 08:26:31;;;;;;;13.10;3.08;;;6.20;99.90;;;;;;4216349;28;20443;-83
2022/12/30 08:28:33;;;;;;;11.30;1.42;;;4.80;99.90;;;;;;4217768;28;20040;-84
2022/12/30 08:30:39;;;;;;;14.20;2.53;;;4.90;99.90;;;;;;4215443;28;20573;-84
2022/12/30 08:32:39;;;;;;;10.85;1.35;;;5.30;99.90;;;;;;4205638;28;20071;-84
2022/12/30 08:34:40;;;;;;;10.68;1.88;;;4.70;99.90;;;;;;4199837;28;20504;-83
2022/12/30 08:36:41;;;;;;;9.82;2.03;;;4.80;99.90;;;;;;4200966;28;20051;-84
2022/12/30 08:38:47;;;;;;;8.85;2.10;;;4.90;99.90;;;;;;4209240;28;20054;-84
2022/12/30 08:40:48;;;;;;;12.10;2.10;;;4.90;99.90;;;;;;4204771;28;20049;-84
2022/12/30 08:42:49;;;;;;;10.38;1.88;;;5.00;99.90;;;;;;4201537;28;20094;-84
2022/12/30 08:44:50;;;;;;;13.77;2.58;;;5.30;99.90;;;;;;4202206;28;20063;-83
2022/12/30 08:46:51;;;;;;;10.50;2.28;;;6.10;99.90;;;;;;4185053;28;20478;-84
2022/12/30 08:48:52;;;;;;;9.68;1.60;;;5.40;99.90;;;;;;4205510;28;20072;-81
2022/12/30 08:50:54;;;;;;;13.98;2.85;;;6.50;99.90;;;;;;4201636;28;20412;-81
2022/12/30 08:52:57;;;;;;;7.60;2.38;;;4.30;99.90;;;;;;4215987;28;20040;-81
2022/12/30 08:54:57;;;;;;;13.07;2.03;;;6.30;99.90;;;;;;4217731;28;20447;-83
2022/12/30 08:56:58;;;;;;;9.02;1.77;;;5.00;99.90;;;;;;4185380;28;20041;-83
2022/12/30 08:58:59;;;;;;;9.75;1.95;;;5.00;99.90;;;;;;4202871;28;20122;-84
2022/12/30 09:01:14;;;;;;;8.45;2.20;;;4.00;99.90;;;;;;4207442;28;20043;-84
2022/12/30 09:03:14;;;;;;;9.10;1.50;;;6.10;99.90;;;;;;4217541;28;20044;-84
2022/12/30 09:05:15;;;;;;;8.30;1.90;;;6.10;99.90;;;;;;4201993;28;20489;-83
2022/12/30 09:07:16;;;;;;;7.10;1.92;;;5.30;99.90;;;;;;4202019;28;20123;-84
2022/12/30 09:09:17;;;;;;;17.08;2.20;;;4.50;99.90;;;;;;4183968;28;20219;-84
2022/12/30 09:11:25;;;;;;;6.03;1.38;;;6.20;99.90;;;;;;4201786;28;20083;-83
2022/12/30 09:13:26;;;;;;;14.30;3.38;;;5.90;99.90;;;;;;4200389;28;20051;-84
2022/12/30 09:15:26;;;;;;;7.35;1.83;;;5.40;99.90;;;;;;4202273;28;20435;-83
2022/12/30 09:17:28;;;;;;;12.82;2.13;;;5.50;99.90;;;;;;4219363;28;20050;-83
2022/12/30 09:19:31;;;;;;;9.38;2.03;;;5.30;99.90;;;;;;4217686;28;20084;-83
2022/12/30 09:21:32;;;;;;;4.72;1.33;;;5.40;99.90;;;;;;4218780;28;20040;-83
2022/12/30 09:23:34;;;;;;;15.07;2.85;;;5.50;99.90;;;;;;4219128;28;20101;-83
2022/12/30 09:25:35;;;;;;;10.70;2.10;;;5.40;99.90;;;;;;4218165;28;20044;-83
2022/12/30 09:27:35;;;;;;;11.77;2.05;;;5.40;99.90;;;;;;4217889;28;20108;-84
2022/12/30 09:29:36;;;;;;;16.00;2.47;;;6.40;99.90;;;;;;4216939;28;20044;-83
2022/12/30 09:31:37;;;;;;;12.63;1.90;;;5.70;99.90;;;;;;4217304;28;20040;-84
2022/12/30 09:33:39;;;;;;;12.43;3.08;;;6.50;99.90;;;;;;4202268;28;20067;-83
2022/12/30 09:35:39;;;;;;;16.95;2.55;;;5.70;99.90;;;;;;4200116;28;20488;-83
2022/12/30 09:37:40;;;;;;;14.68;2.28;;;5.50;99.90;;;;;;4200841;28;20045;-83
2022/12/30 09:39:41;;;;;;;7.28;1.85;;;5.40;99.90;;;;;;4199999;28;20049;-83
2022/12/30 09:44:23;;;;;;;8.90;1.50;;;6.50;99.90;;;;;;4202430;28;20076;-84
2022/12/30 09:46:33;;;;;;;9.80;1.80;;;5.50;99.90;;;;;;4201817;28;20481;-83
2022/12/30 09:48:57;;;;;;;11.00;2.03;;;6.80;99.90;;;;;;4200749;28;20084;-83
2022/12/30 09:51:03;;;;;;;8.55;1.70;;;5.40;99.90;;;;;;4200204;28;20083;-83
2022/12/30 09:53:31;;;;;;;5.88;1.88;;;5.40;99.90;;;;;;4209600;28;20044;-83
2022/12/30 09:55:54;;;;;;;6.10;1.52;;;5.50;99.90;;;;;;4216274;28;20043;-83
2022/12/30 09:57:58;;;;;;;7.82;2.03;;;5.40;99.90;;;;;;4199152;28;20106;-83
2022/12/30 10:00:20;;;;;;;10.15;1.77;;;5.80;99.90;;;;;;4200642;28;20060;-84
2022/12/30 10:02:27;;;;;;;16.02;3.45;;;5.50;99.90;;;;;;4197716;28;20531;-84
2022/12/30 10:04:35;;;;;;;9.68;2.33;;;6.10;99.90;;;;;;4199162;28;20047;-84
2022/12/30 10:07:06;;;;;;;8.68;2.58;;;5.50;99.90;;;;;;4209533;28;20048;-84
2022/12/30 10:09:46;;;;;;;10.13;1.90;;;5.50;99.90;;;;;;4218297;28;20079;-84
2022/12/30 10:12:13;;;;;;;12.07;2.22;;;5.60;99.90;;;;;;4213138;28;20067;-84
2022/12/30 10:14:32;;;;;;;5.72;1.38;;;5.60;99.90;;;;;;4183924;28;20041;-83
2022/12/30 10:16:40;;;;;;;7.95;2.10;;;5.70;99.90;;;;;;4206662;28;20046;-83
2022/12/30 10:18:50;;;;;;;16.25;3.30;;;5.80;99.90;;;;;;4190286;28;20463;-85
2022/12/30 10:21:05;;;;;;;9.07;2.22;;;5.70;99.90;;;;;;4206075;28;20127;-84
2022/12/30 10:23:33;;;;;;;8.27;1.70;;;5.70;99.90;;;;;;4187749;28;20037;-84
2022/12/30 10:25:44;;;;;;;6.78;2.00;;;5.80;99.90;;;;;;4190849;28;20052;-85
2022/12/30 10:27:49;;;;;;;9.68;1.83;;;5.90;99.90;;;;;;4198339;28;20061;-84
2022/12/30 10:29:50;;;;;;;6.30;1.50;;;5.90;99.90;;;;;;4201034;28;20488;-84
2022/12/30 10:31:52;;;;;;;10.68;2.10;;;5.90;99.90;;;;;;4215069;28;20047;-85
2022/12/30 10:34:08;;;;;;;11.05;3.30;;;6.80;99.90;;;;;;4215260;28;20078;-84
2022/12/30 10:36:31;;;;;;;8.57;1.80;;;6.00;99.90;;;;;;4215243;28;20048;-85
2022/12/30 10:38:32;;;;;;;5.05;1.10;;;6.00;99.90;;;;;;4184382;28;20139;-85
2022/12/30 10:41:00;;;;;;;13.88;2.20;;;6.10;99.90;;;;;;4213768;28;20052;-85
2022/12/30 10:43:10;;;;;;;5.35;1.40;;;6.10;99.90;;;;;;4218599;28;20055;-85
2022/12/30 10:45:24;;;;;;;4.40;1.20;;;6.20;99.90;;;;;;4222435;28;20138;-84
2022/12/30 10:47:49;;;;;;;7.47;2.08;;;6.20;99.90;;;;;;4230523;28;20126;-85
2022/12/30 10:50:09;;;;;;;5.13;1.65;;;6.30;99.90;;;;;;4232309;28;20071;-84
2022/12/30 10:52:12;;;;;;;5.70;1.45;;;6.40;99.90;;;;;;4231722;28;20118;-85
2022/12/30 10:54:14;;;;;;;7.47;1.50;;;6.40;99.90;;;;;;4232208;28;20938;-84
2022/12/30 10:56:36;;;;;;;7.80;1.50;;;6.40;99.90;;;;;;4224232;28;20436;-85
2022/12/30 10:58:40;;;;;;;6.95;2.35;;;6.60;99.90;;;;;;4203652;28;20134;-85
2022/12/30 11:00:43;;;;;;;7.93;1.30;;;7.20;99.90;;;;;;4198343;28;20040;-84
2022/12/30 11:02:56;;;;;;;8.73;1.58;;;6.70;99.90;;;;;;4200766;28;20053;-84
2022/12/30 11:04:59;;;;;;;5.53;1.25;;;7.60;99.90;;;;;;4196676;28;20086;-84
2022/12/30 11:07:02;;;;;;;4.38;1.73;;;6.80;99.90;;;;;;4180336;28;20069;-84
2022/12/30 11:09:23;;;;;;;6.55;1.45;;;6.90;99.90;;;;;;4197862;28;20056;-84
2022/12/30 11:14:42;;;;;;;5.45;1.35;;;6.90;99.90;;;;;;4180022;28;20049;-84
2022/12/30 11:16:24;;;;;;;4.40;1.55;;;7.00;99.90;;;;;;4196454;28;20119;-83
2022/12/30 11:18:27;;;;;;;;;;;7.00;99.90;;;;;;4197023;28;20381;-84
2022/12/30 11:20:37;;;;;;;9.25;1.02;;;7.10;99.90;;;;;;4206613;28;19920;-84
2022/12/30 11:22:49;;;;;;;3.58;0.75;;;7.10;99.90;;;;;;4214642;28;20068;-83
2022/12/30 11:24:57;;;;;;;6.95;1.80;;;7.10;99.90;;;;;;4213362;28;20105;-83
2022/12/30 11:26:58;;;;;;;2.80;0.88;;;7.00;99.90;;;;;;4214434;28;20105;-84
2022/12/30 11:29:09;;;;;;;2.95;0.88;;;7.00;99.90;;;;;;4214149;28;20059;-83
2022/12/30 11:31:12;;;;;;;6.85;0.68;;;7.00;99.90;;;;;;4208582;28;20131;-84
2022/12/30 11:33:29;;;;;;;9.18;2.20;;;7.10;99.90;;;;;;4203803;28;20075;-84
2022/12/30 11:35:41;;;;;;;5.25;1.10;;;7.10;99.90;;;;;;4200530;28;20057;-83
2022/12/30 11:37:42;;;;;;;6.57;1.05;;;7.10;99.90;;;;;;4197732;28;20427;-84
2022/12/30 11:39:42;;;;;;;5.85;1.08;;;7.20;99.90;;;;;;4197475;28;20128;-84
2022/12/30 11:41:49;;;;;;;3.83;1.25;;;7.10;99.90;;;;;;4196111;28;20044;-84
2022/12/30 11:44:00;;;;;;;9.10;1.73;;;6.90;99.90;;;;;;4196245;28;20546;-84
2022/12/30 11:46:09;;;;;;;2.15;0.90;;;7.20;99.90;;;;;;4197477;28;20059;-85